NMSU Main Campus Data

Date Time Air Temperature Relative Humidity Dewpoint Windchill Heat Index Wind Speed Wind Dir. Rain Solar Radiation
2m 2m 3m 3m
US/Mountain F % F F F MPH deg in MJ/m^2
max avg avg
2021-09-15 00:05:00 75.2 37.7 47.6 75.2 75.2 0.0 2.1 1.3 134.2 138.8 0.00 0.0000000
2021-09-15 00:10:00 74.5 37.7 47.0 74.5 74.5 0.0 0.0 0.0 111.7 0.0 0.00 0.0000000
2021-09-15 00:15:00 74.6 37.4 46.9 74.6 74.6 0.8 1.7 0.6 105.8 99.2 0.00 0.0000000
2021-09-15 00:20:00 74.8 35.9 46.0 74.8 74.8 1.5 2.1 1.7 138.6 136.7 0.00 0.0000000
2021-09-15 00:25:00 74.9 35.9 46.1 74.9 74.9 0.0 1.9 0.5 96.5 73.8 0.00 0.0000000
2021-09-15 00:30:00 74.6 34.7 45.0 74.6 74.6 1.9 2.4 0.7 0.4 350.0 0.00 0.0000000
2021-09-15 00:35:00 74.5 34.2 44.5 74.5 74.5 0.0 2.2 1.7 326.3 316.1 0.00 0.0000000
2021-09-15 00:40:00 74.9 33.9 44.5 74.9 74.9 0.0 1.5 0.5 133.7 119.5 0.00 0.0000000
2021-09-15 00:45:00 74.5 38.6 47.6 74.5 74.5 1.9 2.4 1.3 229.8 219.6 0.00 0.0000000
2021-09-15 00:50:00 74.6 37.1 46.8 74.6 74.6 3.0 3.0 1.7 212.5 193.3 0.00 0.0000000
2021-09-15 00:55:00 74.0 38.7 47.3 74.0 74.0 1.9 3.1 1.2 199.4 187.0 0.00 0.0000000
2021-09-15 01:00:00 73.4 40.5 47.9 73.4 73.4 1.7 2.8 2.1 144.5 148.0 0.00 0.0000000
2021-09-15 01:05:00 73.1 42.0 48.6 73.1 73.1 1.9 2.1 0.8 175.4 156.3 0.00 0.0000000
2021-09-15 01:10:00 72.4 43.4 48.9 72.4 72.4 1.2 3.0 2.1 155.5 153.0 0.00 0.0000000
2021-09-15 01:15:00 71.9 45.5 49.6 71.9 71.9 3.0 4.2 2.4 243.4 229.7 0.00 0.0000000
2021-09-15 01:20:00 71.6 45.8 49.6 71.6 71.6 3.7 7.4 4.7 273.3 285.5 0.00 0.0000000
2021-09-15 01:25:00 71.9 42.7 48.0 71.9 71.9 4.0 5.1 3.9 314.3 299.6 0.00 0.0000000
2021-09-15 01:30:00 72.9 37.8 45.6 72.9 72.9 4.2 5.3 3.8 5.5 336.7 0.00 0.0000000
2021-09-15 01:35:00 73.7 37.7 46.3 73.7 73.7 0.0 4.4 1.9 87.7 46.6 0.00 0.0000000
2021-09-15 01:40:00 73.5 38.5 46.7 73.5 73.5 1.7 1.9 1.1 118.2 97.9 0.00 0.0000000
2021-09-15 01:45:00 74.3 38.1 47.1 74.3 74.3 1.5 2.6 2.0 116.3 120.9 0.00 0.0000000
2021-09-15 01:50:00 74.0 36.6 45.8 74.0 74.0 0.0 1.9 0.8 118.3 105.7 0.00 0.0000000
2021-09-15 01:55:00 74.2 37.3 46.5 74.2 74.2 0.8 1.5 0.6 54.1 73.0 0.00 0.0000000
2021-09-15 02:00:00 74.5 34.2 44.5 74.5 74.5 2.1 4.7 2.9 44.9 50.3 0.00 0.0000000
2021-09-15 02:05:00 75.3 31.4 42.9 75.3 75.3 3.5 4.0 3.0 30.2 43.4 0.00 0.0000000
2021-09-15 02:10:00 75.3 32.5 43.8 75.3 75.3 2.8 4.0 3.0 4.2 356.6 0.00 0.0000000
2021-09-15 02:15:00 74.6 34.2 44.5 74.6 74.6 2.1 3.5 2.1 333.8 345.7 0.00 0.0000000
2021-09-15 02:20:00 74.3 35.8 45.5 74.3 74.3 1.3 2.6 1.9 39.1 358.9 0.00 0.0000000
2021-09-15 02:25:00 74.5 32.2 42.9 74.5 74.5 0.0 2.1 1.5 82.7 57.9 0.00 0.0000000
2021-09-15 02:30:00 74.2 35.0 44.7 74.2 74.2 1.7 1.9 0.4 305.3 300.0 0.00 0.0000000
2021-09-15 02:35:00 73.7 33.0 42.8 73.7 73.7 0.0 1.7 0.5 65.6 319.7 0.00 0.0000000
2021-09-15 02:40:00 73.5 34.1 43.5 73.5 73.5 2.1 3.0 1.4 314.7 319.8 0.00 0.0000000
2021-09-15 02:45:00 73.3 34.3 43.4 73.3 73.3 1.3 1.9 1.1 300.6 293.9 0.00 0.0000000
2021-09-15 02:50:00 73.0 34.4 43.3 73.0 73.0 1.9 2.2 1.6 286.9 295.9 0.00 0.0000000
2021-09-15 02:55:00 73.1 35.3 44.0 73.1 73.1 1.2 2.1 0.8 178.7 217.6 0.00 0.0000000
2021-09-15 03:00:00 72.2 37.0 44.5 72.2 72.2 0.0 1.3 0.3 113.9 172.2 0.00 0.0000000
2021-09-15 03:05:00 71.7 35.9 43.2 71.7 71.7 0.0 0.0 0.0 255.0 0.0 0.00 0.0000000
2021-09-15 03:10:00 72.0 33.9 42.0 72.0 72.0 0.0 1.2 0.5 240.8 239.8 0.00 0.0000000
2021-09-15 03:15:00 72.6 33.2 42.0 72.6 72.6 1.9 3.5 1.7 310.4 267.0 0.00 0.0000000
2021-09-15 03:20:00 72.6 32.2 41.1 72.6 72.6 3.1 3.5 2.7 297.5 287.9 0.00 0.0000000
2021-09-15 03:25:00 73.2 33.9 43.1 73.2 73.2 2.8 3.5 2.2 283.6 283.7 0.00 0.0000000
2021-09-15 03:30:00 73.2 32.6 42.1 73.2 73.2 2.4 4.0 2.7 260.0 280.6 0.00 0.0000000
2021-09-15 03:35:00 73.3 32.3 41.9 73.3 73.3 3.7 4.2 2.8 289.6 276.7 0.00 0.0000000
2021-09-15 03:40:00 72.9 33.0 42.1 72.9 72.9 1.7 3.5 2.5 279.3 281.5 0.00 0.0000000
2021-09-15 03:45:00 72.9 32.6 41.8 72.9 72.9 2.6 2.8 2.3 299.9 279.3 0.00 0.0000000
2021-09-15 03:50:00 72.7 33.0 41.9 72.7 72.7 1.5 2.4 1.5 275.3 281.4 0.00 0.0000000
2021-09-15 03:55:00 72.7 34.7 43.2 72.7 72.7 3.8 3.8 2.2 297.2 274.6 0.00 0.0000000
2021-09-15 04:00:00 73.3 32.1 41.7 73.3 73.3 5.3 5.3 3.3 222.6 280.7 0.00 0.0000000
2021-09-15 04:05:00 73.8 31.8 41.9 73.8 73.8 3.3 4.7 3.1 260.8 279.3 0.00 0.0000000
2021-09-15 04:10:00 73.1 33.2 42.5 73.1 73.1 3.0 4.4 2.9 288.6 278.8 0.00 0.0000000
2021-09-15 04:15:00 73.0 33.5 42.6 73.0 73.0 1.9 4.0 3.0 270.1 277.1 0.00 0.0000000
2021-09-15 04:20:00 72.0 35.5 43.2 72.0 72.0 2.4 2.4 1.4 324.8 301.9 0.00 0.0000000
2021-09-15 04:25:00 71.9 35.8 43.3 71.9 71.9 2.1 2.6 1.8 335.3 322.7 0.00 0.0000000
2021-09-15 04:30:00 71.3 37.2 43.8 71.3 71.3 1.3 1.7 0.5 299.2 330.5 0.00 0.0000000
2021-09-15 04:35:00 70.9 38.5 44.4 70.9 70.9 1.9 2.4 1.5 271.9 298.9 0.00 0.0000000
2021-09-15 04:40:00 70.7 37.5 43.5 70.7 70.7 1.9 1.9 0.9 263.6 270.8 0.00 0.0000000
2021-09-15 04:45:00 71.7 35.3 42.8 71.7 71.7 2.2 3.3 2.2 270.9 270.3 0.00 0.0000000
2021-09-15 04:50:00 72.4 34.4 42.7 72.4 72.4 2.6 4.2 2.5 270.7 259.1 0.00 0.0000000
2021-09-15 04:55:00 72.7 34.3 42.9 72.7 72.7 0.0 2.8 1.8 252.8 259.6 0.00 0.0000000
2021-09-15 05:00:00 72.5 34.6 43.0 72.5 72.5 1.3 2.1 1.1 323.8 269.8 0.00 0.0000000
2021-09-15 05:05:00 72.4 35.4 43.5 72.4 72.4 2.1 4.4 2.3 337.4 339.6 0.00 0.0000000
2021-09-15 05:10:00 73.2 33.5 42.7 73.2 73.2 4.0 4.6 3.3 11.0 347.7 0.00 0.0000000
2021-09-15 05:15:00 73.6 33.7 43.3 73.6 73.6 4.4 6.7 5.0 12.0 354.0 0.00 0.0000000
2021-09-15 05:20:00 74.3 32.2 42.7 74.3 74.3 6.2 9.4 6.6 0.2 355.8 0.00 0.0000000
2021-09-15 05:25:00 74.5 31.7 42.5 74.5 74.5 8.0 8.0 6.3 25.8 8.8 0.00 0.0000000
2021-09-15 05:30:00 74.3 32.9 43.2 74.3 74.3 4.4 8.8 6.1 303.8 9.7 0.00 0.0000000
2021-09-15 05:35:00 73.7 33.1 42.9 73.7 73.7 5.1 7.4 5.2 339.6 1.2 0.00 0.0000000
2021-09-15 05:40:00 73.5 32.5 42.3 73.5 73.5 3.8 7.8 5.2 331.8 2.9 0.00 0.0000000
2021-09-15 05:45:00 73.6 32.3 42.1 73.6 73.6 4.2 7.4 4.7 5.2 11.4 0.00 0.0000000
2021-09-15 05:50:00 73.6 31.2 41.3 73.6 73.6 4.0 8.0 4.8 7.0 26.8 0.00 0.0000000
2021-09-15 05:55:00 73.4 31.9 41.6 73.4 73.4 5.6 8.1 5.1 45.9 22.7 0.00 0.0000000
2021-09-15 06:00:00 73.2 32.0 41.5 73.2 73.2 5.5 8.8 5.7 42.1 11.2 0.00 0.0000000
2021-09-15 06:05:00 73.1 31.0 40.7 73.1 73.1 7.2 11.0 6.9 4.7 21.5 0.00 0.0000000
2021-09-15 06:10:00 73.1 31.0 40.7 73.1 73.1 4.2 7.6 5.3 328.8 19.6 0.00 0.0000000
2021-09-15 06:15:00 72.7 30.7 40.0 72.7 72.7 6.9 9.6 5.6 340.1 9.7 0.00 0.0000000
2021-09-15 06:20:00 72.5 31.3 40.4 72.5 72.5 3.7 8.1 5.8 37.7 15.8 0.00 0.0000000
2021-09-15 06:25:00 72.2 33.8 42.1 72.2 72.2 3.7 7.6 5.3 323.1 343.0 0.00 0.0000000
2021-09-15 06:30:00 71.1 33.4 40.8 71.1 71.1 8.3 8.3 6.2 314.5 307.9 0.00 0.0000000
2021-09-15 06:35:00 71.2 33.4 40.9 71.2 71.2 4.4 8.0 5.6 1.5 325.0 0.00 0.0000382
2021-09-15 06:40:00 71.1 34.2 41.5 71.1 71.1 3.1 4.6 3.4 339.4 307.5 0.00 0.0001727
2021-09-15 06:45:00 71.1 32.6 40.2 71.1 71.1 2.8 3.7 2.5 23.5 7.8 0.00 0.0003756
2021-09-15 06:50:00 71.1 33.1 40.6 71.1 71.1 0.0 2.8 0.8 40.5 44.8 0.00 0.0005865
2021-09-15 06:55:00 70.9 33.6 40.8 70.9 70.9 2.2 2.6 1.5 215.7 212.9 0.00 0.0008897
2021-09-15 07:00:00 70.8 33.9 40.9 70.8 70.8 0.0 2.8 1.4 161.1 194.5 0.00 0.0012874
2021-09-15 07:05:00 70.7 34.7 41.5 70.7 70.7 0.8 1.5 0.2 138.0 157.4 0.00 0.0021912
2021-09-15 07:10:00 70.6 34.0 40.9 70.6 70.6 1.3 1.9 1.1 201.2 130.7 0.00 0.0033723
2021-09-15 07:15:00 70.6 34.3 41.1 70.6 70.6 3.0 6.0 3.6 291.4 304.7 0.00 0.0046839
2021-09-15 07:20:00 70.8 33.2 40.4 70.8 70.8 4.2 8.3 5.1 315.4 313.0 0.00 0.0060417
2021-09-15 07:25:00 70.6 34.0 40.9 70.6 70.6 6.0 8.0 5.6 315.5 317.3 0.00 0.0074538
2021-09-15 07:30:00 70.3 35.4 41.6 70.3 70.3 7.2 8.3 5.7 310.5 324.3 0.00 0.0089905
2021-09-15 07:35:00 70.1 35.9 41.8 70.1 70.1 4.9 8.0 5.1 310.5 322.8 0.00 0.0111356
2021-09-15 07:40:00 70.1 37.8 43.2 70.1 70.1 4.6 8.7 5.9 6.0 331.6 0.00 0.0139034
2021-09-15 07:45:00 70.0 37.9 43.1 70.0 70.0 5.6 6.9 5.2 13.6 333.2 0.00 0.0170147
2021-09-15 07:50:00 69.9 37.3 42.6 69.9 69.9 4.9 6.5 4.8 2.6 330.9 0.00 0.0199106
2021-09-15 07:55:00 70.3 37.7 43.3 70.3 70.3 3.3 6.2 4.3 0.4 327.8 0.00 0.0230177
2021-09-15 08:00:00 70.6 36.7 42.9 70.6 70.6 0.0 3.7 0.9 55.1 340.3 0.00 0.0269547
2021-09-15 08:05:00 70.8 37.1 43.3 70.8 70.8 4.4 4.4 1.6 316.7 312.7 0.00 0.0307547
2021-09-15 08:10:00 70.6 38.5 44.1 70.6 70.6 3.5 4.2 3.4 304.7 307.6 0.00 0.0340906
2021-09-15 08:15:00 71.1 37.7 44.0 71.1 71.1 2.4 4.7 2.9 3.8 314.3 0.00 0.0384009
2021-09-15 08:20:00 71.8 34.2 42.1 71.8 71.8 1.9 3.5 1.6 109.4 41.5 0.00 0.0616228
2021-09-15 08:25:00 73.2 32.6 42.1 73.2 73.2 2.2 2.6 1.7 94.4 96.1 0.00 0.0971387
2021-09-15 08:30:00 74.9 31.3 42.6 74.9 74.9 1.5 2.2 1.2 27.6 71.7 0.00 0.1193566
2021-09-15 08:35:00 74.8 31.5 42.5 74.8 74.8 3.8 4.2 2.2 28.0 38.2 0.00 0.1122503
2021-09-15 08:40:00 74.5 32.5 43.1 74.5 74.5 3.0 4.4 2.6 332.9 315.7 0.00 0.1208621
2021-09-15 08:45:00 74.6 32.1 42.9 74.6 74.6 2.8 4.0 2.8 5.1 339.6 0.00 0.1334279
2021-09-15 08:50:00 74.9 32.2 43.3 74.9 74.9 2.6 2.8 2.0 276.3 273.2 0.00 0.0921143
2021-09-15 08:55:00 75.2 32.3 43.6 75.2 75.2 1.3 2.4 1.2 208.7 287.4 0.00 0.0621228
2021-09-15 09:00:00 74.9 32.8 43.6 74.9 74.9 1.9 3.5 2.5 278.6 251.3 0.00 0.0557134
2021-09-15 09:05:00 74.6 32.8 43.4 74.6 74.6 3.1 3.7 2.6 285.1 285.6 0.00 0.0546242
2021-09-15 09:10:00 74.4 36.0 45.6 74.4 74.4 1.3 3.8 2.5 261.0 304.1 0.00 0.0559769
2021-09-15 09:15:00 74.6 37.8 47.2 74.6 74.6 3.7 4.7 3.1 322.1 296.7 0.00 0.0758463
2021-09-15 09:20:00 74.4 41.8 49.6 74.4 74.4 3.3 6.0 3.9 325.8 299.0 0.00 0.0627862
2021-09-15 09:25:00 74.6 40.4 49.0 74.6 74.6 3.3 5.3 3.1 310.5 294.4 0.00 0.1039585
2021-09-15 09:30:00 74.5 41.6 49.6 74.5 74.5 3.0 5.3 4.0 305.5 293.2 0.00 0.0918801
2021-09-15 09:35:00 76.0 38.5 49.0 76.0 76.0 2.1 4.0 2.7 296.7 309.9 0.00 0.1527805
2021-09-15 09:40:00 77.9 35.7 48.7 77.9 77.9 3.0 3.3 1.9 71.7 337.5 0.00 0.1555445
2021-09-15 09:45:00 78.1 37.9 50.3 78.1 78.1 3.8 5.5 3.5 5.7 24.1 0.00 0.1683404
2021-09-15 09:50:00 77.6 36.9 49.2 77.6 77.6 4.9 6.9 4.9 25.6 29.3 0.00 0.1673085
2021-09-15 09:55:00 78.0 36.0 48.8 78.0 78.0 4.7 8.1 4.6 8.3 28.4 0.00 0.1657181
2021-09-15 10:00:00 78.4 35.3 48.8 78.4 78.4 2.2 5.1 3.1 40.7 26.0 0.00 0.1696043
2021-09-15 10:05:00 80.2 33.0 48.5 80.2 80.2 3.5 3.5 1.7 121.9 98.6 0.00 0.1721895
2021-09-15 10:10:00 79.6 32.8 47.9 79.6 79.6 1.2 5.5 3.2 124.6 114.5 0.00 0.1508903
2021-09-15 10:15:00 80.6 33.1 49.0 80.6 80.6 1.0 3.7 1.6 263.3 326.5 0.00 0.1838229
2021-09-15 10:20:00 81.4 32.3 49.0 81.4 81.4 2.2 4.4 2.3 6.7 356.8 0.00 0.1877966
2021-09-15 10:25:00 81.5 33.8 50.3 81.5 81.5 3.5 7.1 3.3 308.6 334.2 0.00 0.1917243
2021-09-15 10:30:00 81.9 32.4 49.5 81.9 81.9 1.3 3.8 2.0 281.4 311.9 0.00 0.1962467
2021-09-15 10:35:00 81.6 34.6 51.0 81.6 81.6 4.2 4.7 3.3 310.1 302.9 0.00 0.1999160
2021-09-15 10:40:00 81.7 33.8 50.5 81.7 81.7 2.6 5.1 3.3 331.3 280.1 0.00 0.2047798
2021-09-15 10:45:00 83.2 32.1 50.3 83.2 83.2 3.8 4.7 2.5 216.7 284.3 0.00 0.2104337
2021-09-15 10:50:00 83.4 29.4 48.2 83.4 83.4 2.2 4.4 2.9 286.7 232.3 0.00 0.2178824
2021-09-15 10:55:00 83.4 29.5 48.3 83.4 83.4 3.3 4.2 1.9 287.6 359.0 0.00 0.1408728
2021-09-15 11:00:00 83.8 28.1 47.3 83.8 83.8 1.2 4.0 2.7 110.6 201.6 0.00 0.2076635
2021-09-15 11:05:00 85.4 26.5 47.1 85.4 85.4 5.6 5.6 2.2 211.5 154.4 0.00 0.2368144
2021-09-15 11:10:00 84.2 27.3 46.9 84.2 84.2 3.7 6.9 4.3 210.1 173.3 0.00 0.1624712
2021-09-15 11:15:00 84.1 28.8 48.3 84.1 84.1 2.4 4.0 2.0 249.6 224.7 0.00 0.0719450
2021-09-15 11:20:00 83.4 28.4 47.3 83.4 83.4 5.1 7.2 3.8 248.4 242.1 0.00 0.1493720
2021-09-15 11:25:00 84.9 27.0 47.2 84.9 84.9 3.0 4.7 3.1 114.1 161.1 0.00 0.2521670
2021-09-15 11:30:00 84.8 27.8 47.9 84.8 84.8 5.3 6.0 3.3 200.2 172.1 0.00 0.1665003
2021-09-15 11:35:00 85.8 28.0 49.0 85.8 85.8 4.7 4.9 3.4 166.8 204.0 0.00 0.2408856
2021-09-15 11:40:00 85.8 26.8 47.8 85.8 85.8 3.7 6.5 4.3 209.5 160.8 0.00 0.2220748
2021-09-15 11:45:00 85.7 26.2 47.0 85.7 85.7 3.7 6.9 4.4 221.8 206.7 0.00 0.2562741
2021-09-15 11:50:00 85.5 26.3 47.0 85.5 85.5 2.8 6.9 3.5 117.7 189.3 0.00 0.2516032
2021-09-15 11:55:00 86.7 26.7 48.4 86.7 86.7 2.4 5.8 3.5 157.8 191.2 0.00 0.2484336
2021-09-15 12:00:00 87.4 25.1 47.4 87.4 87.4 4.7 5.5 3.8 214.3 195.3 0.00 0.2460576
2021-09-15 12:05:00 87.5 24.5 46.7 87.5 87.5 3.5 4.9 3.3 167.2 164.4 0.00 0.2449175
2021-09-15 12:10:00 87.3 24.0 46.1 87.3 87.3 4.7 5.3 3.5 133.9 129.0 0.00 0.2461906
2021-09-15 12:15:00 87.6 25.8 48.3 87.6 87.6 5.5 6.5 4.4 177.5 166.7 0.00 0.2493201
2021-09-15 12:20:00 87.1 25.8 47.8 87.1 87.1 2.2 6.5 3.9 214.3 173.8 0.00 0.2507829
2021-09-15 12:25:00 88.1 24.9 47.7 88.1 88.1 2.8 6.0 3.8 178.1 181.8 0.00 0.2518422
2021-09-15 12:30:00 88.0 25.6 48.4 88.0 88.0 4.6 6.0 3.7 200.8 170.3 0.00 0.2532897
2021-09-15 12:35:00 88.3 24.6 47.6 88.3 88.3 5.8 6.7 4.6 157.7 135.9 0.00 0.2537489
2021-09-15 12:40:00 88.6 24.2 47.4 88.6 88.6 2.4 5.8 3.8 111.6 149.3 0.00 0.2551908
2021-09-15 12:45:00 88.1 25.7 48.7 88.1 88.1 2.8 5.5 3.8 133.0 154.6 0.00 0.2558418
2021-09-15 12:50:00 88.6 25.7 49.0 88.6 88.6 4.2 5.6 4.0 240.4 197.2 0.00 0.2562616
2021-09-15 12:55:00 89.0 24.6 48.2 89.0 89.0 5.8 5.8 3.9 120.9 119.1 0.00 0.2559732
2021-09-15 13:00:00 90.3 24.7 49.4 90.3 90.3 4.2 6.0 3.7 116.6 130.0 0.00 0.2553785
2021-09-15 13:05:00 88.8 25.2 48.7 88.8 88.8 2.6 6.3 4.4 326.6 115.0 0.00 0.2547642
2021-09-15 13:10:00 89.3 25.9 49.8 89.3 89.3 3.0 5.6 3.4 190.3 187.0 0.00 0.2539889
2021-09-15 13:15:00 90.3 25.2 49.9 90.3 90.3 5.1 5.1 2.8 110.6 89.2 0.00 0.2536025
2021-09-15 13:20:00 90.6 24.5 49.4 90.6 90.6 4.7 6.5 4.2 161.8 189.6 0.00 0.2539306
2021-09-15 13:25:00 90.5 23.0 47.7 90.5 90.5 5.1 6.3 3.4 101.4 138.4 0.00 0.2531444
2021-09-15 13:30:00 90.0 24.3 48.7 90.0 90.0 3.5 6.0 4.1 250.5 212.4 0.00 0.2524031
2021-09-15 13:35:00 90.5 26.0 50.9 90.5 90.5 3.7 6.7 4.6 130.1 191.0 0.00 0.2515721
2021-09-15 13:40:00 90.6 22.4 47.0 90.6 90.6 5.5 8.0 5.2 216.1 200.7 0.00 0.2501630
2021-09-15 13:45:00 91.3 23.6 49.1 91.3 91.3 3.8 10.8 4.3 199.9 190.2 0.00 0.2489157
2021-09-15 13:50:00 90.9 22.5 47.4 90.9 90.9 6.9 8.1 5.6 205.2 191.9 0.00 0.2484558
2021-09-15 13:55:00 91.0 23.1 48.1 91.0 91.0 3.5 7.4 4.7 133.7 175.0 0.00 0.2468749
2021-09-15 14:00:00 92.3 22.4 48.5 92.3 92.3 5.3 5.6 4.0 155.9 183.8 0.00 0.2456351
2021-09-15 14:05:00 91.8 22.7 48.4 91.8 91.8 9.0 11.0 5.3 243.6 183.2 0.00 0.2434241
2021-09-15 14:10:00 90.7 23.3 48.2 90.7 90.7 4.7 9.4 5.7 222.8 212.3 0.00 0.2413360
2021-09-15 14:15:00 90.6 24.9 49.8 90.6 90.6 6.2 10.8 6.6 149.7 205.7 0.00 0.2398611
2021-09-15 14:20:00 90.7 25.1 50.2 90.7 90.7 3.0 9.0 5.8 197.9 195.7 0.00 0.2379095
2021-09-15 14:25:00 91.4 23.1 48.6 91.4 91.4 6.9 9.6 6.0 156.8 181.4 0.00 0.2365016
2021-09-15 14:30:00 91.3 22.6 47.9 91.3 91.3 6.2 7.2 4.7 101.9 190.2 0.00 0.2336018
2021-09-15 14:35:00 91.9 22.0 47.6 91.9 91.9 3.3 9.6 4.7 103.1 178.9 0.00 0.2314247
2021-09-15 14:40:00 92.6 21.0 47.0 92.6 92.6 3.3 7.6 5.3 180.4 202.0 0.00 0.2291350
2021-09-15 14:45:00 92.2 22.7 48.7 92.2 92.2 4.9 7.1 4.6 167.9 188.3 0.00 0.2262215
2021-09-15 14:50:00 91.8 21.9 47.4 91.8 91.8 2.8 8.3 5.0 204.3 202.5 0.00 0.2235061
2021-09-15 14:55:00 92.7 21.0 47.1 92.7 92.7 6.9 8.5 5.0 237.9 190.4 0.00 0.2209377
2021-09-15 15:00:00 92.9 19.6 45.5 92.9 92.9 4.7 8.0 4.7 128.6 173.0 0.00 0.2183549
2021-09-15 15:05:00 93.2 20.4 46.7 93.2 93.2 3.8 8.7 3.8 148.0 174.2 0.00 0.2153117
2021-09-15 15:10:00 93.2 21.1 47.7 93.2 93.2 3.0 7.4 4.6 73.0 170.0 0.00 0.2121128
2021-09-15 15:15:00 93.6 21.1 47.9 93.6 93.6 4.7 6.7 4.1 159.4 185.6 0.00 0.2086842
2021-09-15 15:20:00 93.0 21.4 47.7 93.0 93.0 3.7 8.5 5.2 203.1 170.2 0.00 0.2059899
2021-09-15 15:25:00 93.1 20.7 47.0 93.1 93.1 4.7 6.9 4.8 141.3 163.0 0.00 0.2031085
2021-09-15 15:30:00 93.0 19.9 45.9 93.0 93.0 4.0 7.2 4.3 144.3 156.9 0.00 0.1999618
2021-09-15 15:35:00 93.3 21.1 47.7 93.3 93.3 3.1 8.3 4.2 169.6 191.5 0.00 0.1961943
2021-09-15 15:40:00 93.1 22.0 48.6 93.1 93.1 5.1 6.5 4.4 188.8 169.5 0.00 0.1920346
2021-09-15 15:45:00 93.5 21.6 48.5 93.5 93.5 6.3 6.3 4.0 142.9 166.8 0.00 0.1880173
2021-09-15 15:50:00 93.1 21.5 48.0 93.1 93.1 6.0 7.2 4.5 157.3 139.3 0.00 0.1840826
2021-09-15 15:55:00 93.5 20.5 47.1 93.5 93.5 3.1 7.6 4.0 97.6 144.9 0.00 0.1795874
2021-09-15 16:00:00 93.7 23.0 50.3 93.7 93.7 4.7 6.2 3.6 185.4 161.5 0.00 0.1760129
2021-09-15 16:05:00 93.1 22.5 49.2 93.1 93.1 4.0 8.0 5.3 182.8 188.2 0.00 0.1723742
2021-09-15 16:10:00 92.8 21.4 47.6 92.8 92.8 3.7 6.7 3.9 72.8 172.3 0.00 0.1679002
2021-09-15 16:15:00 92.8 22.5 49.0 92.8 92.8 2.8 10.6 4.7 186.9 188.4 0.00 0.1634714
2021-09-15 16:20:00 92.6 22.1 48.3 92.6 92.6 4.0 8.7 5.3 173.7 201.9 0.00 0.1590690
2021-09-15 16:25:00 93.0 21.1 47.5 93.0 93.0 4.4 5.8 4.1 94.0 136.5 0.00 0.1546527
2021-09-15 16:30:00 93.5 21.4 48.3 93.5 93.5 3.7 6.5 3.4 124.9 157.3 0.00 0.1509191
2021-09-15 16:35:00 93.4 22.0 48.8 93.4 93.4 5.1 5.6 3.6 179.1 170.4 0.00 0.1461492
2021-09-15 16:40:00 93.3 21.6 48.4 93.3 93.3 3.0 6.5 3.9 139.9 145.5 0.00 0.1415671
2021-09-15 16:45:00 93.3 22.6 49.5 93.3 93.3 2.4 5.8 3.6 122.8 165.3 0.00 0.1369511
2021-09-15 16:50:00 92.8 22.7 49.2 92.8 92.8 6.0 7.6 4.3 187.7 173.9 0.00 0.1320095
2021-09-15 16:55:00 92.8 21.8 48.2 92.8 92.8 5.8 7.6 4.6 210.1 184.9 0.00 0.1266943
2021-09-15 17:00:00 93.1 21.4 47.9 93.1 93.1 3.3 6.5 3.8 181.7 175.0 0.00 0.1218686
2021-09-15 17:05:00 93.2 22.0 48.7 93.2 93.2 3.1 6.3 3.6 115.4 167.2 0.00 0.1165090
2021-09-15 17:10:00 93.3 21.0 47.6 93.3 93.3 4.0 6.7 3.7 142.2 141.9 0.00 0.1113180
2021-09-15 17:15:00 93.2 21.8 48.5 93.2 93.2 4.7 5.6 3.4 107.3 149.7 0.00 0.1062749
2021-09-15 17:20:00 93.1 22.5 49.3 93.1 93.1 3.8 6.2 4.2 142.1 154.0 0.00 0.1010350
2021-09-15 17:25:00 93.1 23.2 50.1 93.1 93.1 3.5 6.0 3.5 184.9 179.8 0.00 0.0963883
2021-09-15 17:30:00 92.9 23.6 50.4 92.9 92.9 4.0 5.5 3.4 192.0 188.4 0.00 0.0897373
2021-09-15 17:35:00 92.1 21.3 47.0 92.1 92.1 3.5 5.5 3.9 164.8 195.1 0.00 0.0832038
2021-09-15 17:40:00 92.4 20.5 46.1 92.4 92.4 4.7 5.8 3.1 200.8 183.8 0.00 0.0549374
2021-09-15 17:45:00 91.4 19.5 44.1 91.4 91.4 2.4 4.6 2.5 154.2 166.5 0.00 0.0137236
2021-09-15 17:50:00 91.2 20.3 44.9 91.2 91.2 2.1 3.3 2.3 199.1 182.4 0.00 0.0120897
2021-09-15 17:55:00 90.6 21.3 45.7 90.6 90.6 3.0 3.8 2.5 96.2 142.7 0.00 0.0119756
2021-09-15 18:00:00 90.3 21.2 45.4 90.3 90.3 1.0 3.7 2.0 116.6 128.7 0.00 0.0297624
2021-09-15 18:05:00 90.9 22.7 47.6 90.9 90.9 2.4 4.6 2.7 174.9 169.0 0.00 0.0434308
2021-09-15 18:10:00 91.0 22.7 47.7 91.0 91.0 2.1 4.9 2.4 208.9 165.2 0.00 0.0249484
2021-09-15 18:15:00 90.5 21.9 46.3 90.5 90.5 1.7 3.0 1.6 144.8 142.6 0.00 0.0128061
2021-09-15 18:20:00 90.1 22.0 46.1 90.1 90.1 2.4 3.7 1.9 193.6 160.4 0.00 0.0124815
2021-09-15 18:25:00 89.5 23.6 47.5 89.5 89.5 1.5 2.8 1.9 149.3 166.3 0.00 0.0129068
2021-09-15 18:30:00 89.5 23.7 47.6 89.5 89.5 1.7 2.8 1.7 165.5 166.9 0.00 0.0129252
2021-09-15 18:35:00 89.1 24.1 47.7 89.1 89.1 1.0 3.0 1.4 20.1 160.3 0.00 0.0122677
2021-09-15 18:40:00 88.7 25.2 48.7 88.7 88.7 1.9 2.4 1.3 155.8 171.8 0.00 0.0101786
2021-09-15 18:45:00 88.4 25.8 49.0 88.4 88.4 1.0 3.1 1.3 154.5 150.3 0.00 0.0073476
2021-09-15 18:50:00 88.2 26.0 49.0 88.2 88.2 1.5 2.6 1.4 117.7 135.9 0.00 0.0049214
2021-09-15 18:55:00 87.8 27.4 50.1 87.8 87.8 1.0 1.7 0.7 132.2 137.0 0.00 0.0034417
2021-09-15 19:00:00 87.5 29.1 51.4 87.5 87.5 0.0 2.1 1.0 144.4 131.7 0.00 0.0026276
2021-09-15 19:05:00 86.9 30.4 52.1 86.9 86.9 0.0 1.3 0.2 90.6 119.4 0.00 0.0022105
2021-09-15 19:10:00 86.7 31.5 52.9 86.7 86.7 0.0 0.0 0.0 282.8 0.0 0.00 0.0018275
2021-09-15 19:15:00 86.2 32.5 53.3 86.2 86.2 0.0 0.0 0.0 193.8 0.0 0.00 0.0012097
2021-09-15 19:20:00 85.7 33.3 53.6 85.7 85.7 0.0 0.0 0.0 191.5 0.0 0.00 0.0006279
2021-09-15 19:25:00 85.3 31.4 51.6 85.3 85.3 0.0 0.0 0.0 167.8 0.0 0.00 0.0003370
2021-09-15 19:30:00 85.0 31.3 51.2 85.0 85.0 0.0 0.0 0.0 81.8 0.0 0.00 0.0001565
2021-09-15 19:35:00 85.0 30.2 50.3 85.0 85.0 1.0 1.9 0.9 73.2 79.3 0.00 0.0000401
2021-09-15 19:40:00 85.3 28.4 48.9 85.3 85.3 2.2 2.4 1.7 64.0 73.7 0.00 0.0000000
2021-09-15 19:45:00 86.5 22.4 43.6 86.5 86.5 11.9 11.9 4.7 23.3 51.3 0.00 0.0000000
2021-09-15 19:50:00 85.4 23.3 43.8 85.4 85.4 6.9 13.5 7.8 34.0 33.5 0.00 0.0000000
2021-09-15 19:55:00 85.3 23.8 44.2 85.3 85.3 3.5 9.4 5.0 101.9 52.4 0.00 0.0000000
2021-09-15 20:00:00 85.3 24.7 45.3 85.3 85.3 3.7 8.0 4.8 59.3 48.4 0.00 0.0000000
2021-09-15 20:05:00 84.5 27.1 46.9 84.5 84.5 3.0 6.2 3.2 103.4 65.5 0.00 0.0000000
2021-09-15 20:10:00 84.0 26.0 45.4 84.0 84.0 3.8 7.6 3.9 80.0 81.2 0.00 0.0000000
2021-09-15 20:15:00 84.3 26.5 46.1 84.3 84.3 3.8 7.8 4.3 124.5 101.8 0.00 0.0000000
2021-09-15 20:20:00 84.7 26.9 47.0 84.7 84.7 4.2 6.9 4.5 133.7 115.6 0.00 0.0000000
2021-09-15 20:25:00 84.7 29.5 49.4 84.7 84.7 4.7 6.9 4.2 115.6 124.4 0.00 0.0000000
2021-09-15 20:30:00 85.0 33.4 53.1 85.0 85.0 5.1 9.6 5.7 133.3 121.1 0.00 0.0000000
2021-09-15 20:35:00 85.2 33.8 53.5 85.2 85.2 3.7 8.3 5.0 108.8 118.4 0.00 0.0000000
2021-09-15 20:40:00 85.2 33.3 53.1 85.2 85.2 11.0 11.0 5.5 145.9 119.8 0.00 0.0000000
2021-09-15 20:45:00 85.3 33.3 53.2 85.3 85.3 4.6 11.0 6.7 169.4 118.3 0.00 0.0000000
2021-09-15 20:50:00 84.8 32.7 52.3 84.8 84.8 6.5 13.1 8.2 111.0 116.1 0.00 0.0000000
2021-09-15 20:55:00 84.6 32.3 51.7 84.6 84.6 5.5 8.3 6.0 128.3 114.5 0.00 0.0000000
2021-09-15 21:00:00 84.1 31.1 50.3 84.1 84.1 9.0 9.0 5.1 102.0 126.4 0.00 0.0000000
2021-09-15 21:05:00 83.9 30.7 49.8 83.9 83.9 5.8 9.9 5.5 113.6 115.9 0.00 0.0000000
2021-09-15 21:10:00 84.3 30.1 49.6 84.3 84.3 6.9 8.3 5.0 97.4 117.3 0.00 0.0000000
2021-09-15 21:15:00 84.0 30.1 49.3 84.0 84.0 10.1 10.1 7.1 105.2 119.1 0.00 0.0000000
2021-09-15 21:20:00 83.7 30.3 49.3 83.7 83.7 9.0 10.5 7.0 115.6 109.6 0.00 0.0000000
2021-09-15 21:25:00 83.8 30.2 49.3 83.8 83.8 11.0 11.7 7.7 135.4 111.6 0.00 0.0000000
2021-09-15 21:30:00 83.6 30.6 49.4 83.6 83.6 8.5 13.7 9.0 118.5 110.6 0.00 0.0000000
2021-09-15 21:35:00 83.0 31.2 49.5 83.0 83.0 4.6 10.8 6.5 97.2 101.9 0.00 0.0000000
2021-09-15 21:40:00 82.7 31.2 49.2 82.7 82.7 3.3 5.5 3.7 122.7 90.7 0.00 0.0000000
2021-09-15 21:45:00 82.6 31.1 48.9 82.6 82.6 10.5 10.5 5.3 117.5 109.0 0.00 0.0000000
2021-09-15 21:50:00 82.9 30.9 49.1 82.9 82.9 5.1 10.8 5.5 112.9 104.5 0.00 0.0000000
2021-09-15 21:55:00 83.0 31.1 49.4 83.0 83.0 2.6 10.5 4.8 90.4 116.4 0.00 0.0000000
2021-09-15 22:00:00 83.2 30.6 49.1 83.2 83.2 6.2 11.9 6.5 78.4 104.7 0.00 0.0000000
2021-09-15 22:05:00 83.4 29.8 48.6 83.4 83.4 6.2 8.5 5.7 104.4 106.2 0.00 0.0000000
2021-09-15 22:10:00 83.3 29.0 47.7 83.3 83.3 5.1 6.2 3.8 98.5 108.2 0.00 0.0000000
2021-09-15 22:15:00 83.4 28.5 47.3 83.4 83.4 2.8 4.4 2.0 21.2 71.0 0.00 0.0000000
2021-09-15 22:20:00 83.0 29.9 48.3 83.0 83.0 3.0 4.7 2.8 256.0 314.6 0.00 0.0000000
2021-09-15 22:25:00 82.6 30.5 48.5 82.6 82.6 2.4 4.6 3.7 296.2 290.8 0.00 0.0000000
2021-09-15 22:30:00 82.5 29.2 47.2 82.5 82.5 2.6 3.8 2.4 294.1 306.0 0.00 0.0000000
2021-09-15 22:35:00 82.6 32.1 49.8 82.6 82.6 4.2 7.2 4.3 283.7 296.5 0.00 0.0000000
2021-09-15 22:40:00 82.0 32.0 49.2 82.0 82.0 3.5 5.3 3.3 305.0 311.8 0.00 0.0000000
2021-09-15 22:45:00 81.4 48.6 60.2 81.4 82.0 3.5 5.3 3.4 36.1 350.9 0.01 0.0000000
2021-09-15 22:50:00 78.8 55.2 61.4 78.8 78.8 3.8 4.6 2.3 190.4 127.1 0.00 0.0000000
2021-09-15 22:55:00 77.6 46.5 55.5 77.6 77.6 1.2 5.1 2.9 205.9 200.7 0.00 0.0000000
2021-09-15 23:00:00 76.6 44.9 53.6 76.6 76.6 6.3 6.3 3.7 218.8 221.2 0.00 0.0000000
2021-09-15 23:05:00 76.1 44.5 52.9 76.1 76.1 2.4 5.6 2.8 248.5 203.8 0.00 0.0000000
2021-09-15 23:10:00 75.7 46.4 53.7 75.7 75.7 2.2 3.3 2.1 286.0 268.8 0.00 0.0000000
2021-09-15 23:15:00 74.8 46.9 53.1 74.8 74.8 5.5 7.2 5.2 293.6 314.3 0.00 0.0000000
2021-09-15 23:20:00 75.6 40.0 49.6 75.6 75.6 3.3 8.0 4.9 148.0 342.8 0.00 0.0000000
2021-09-15 23:25:00 76.3 41.4 51.1 76.3 76.3 1.7 3.3 2.2 175.9 162.1 0.00 0.0000000
2021-09-15 23:30:00 76.2 47.5 54.8 76.2 76.2 2.1 3.1 2.3 203.1 186.1 0.00 0.0000000
2021-09-15 23:35:00 75.5 47.3 54.0 75.5 75.5 1.5 2.6 1.8 184.4 203.2 0.00 0.0000000
2021-09-15 23:40:00 75.5 43.0 51.4 75.5 75.5 2.6 3.7 1.7 173.2 148.1 0.00 0.0000000
2021-09-15 23:45:00 75.0 49.2 54.6 75.0 75.0 2.1 3.3 1.8 169.2 156.4 0.00 0.0000000
2021-09-15 23:50:00 74.3 45.5 51.9 74.3 74.3 4.0 5.3 2.3 213.9 190.0 0.00 0.0000000
2021-09-15 23:55:00 74.0 45.0 51.4 74.0 74.0 3.5 4.6 3.0 161.2 195.9 0.00 0.0000000
2021-09-16 00:00:00 74.1 44.1 50.9 74.1 74.1 2.6 6.7 3.6 141.9 200.7 0.00 0.0000000

Data is courtesy of the NM Climate Center. DO NOT USE IN LEGAL PROCEEDINGS.